createdAt,value
2023-05-25T00:04:30.739Z,102451.47
2023-05-25T00:09:52.623Z,102459.16
2023-05-25T00:15:14.465Z,102452.75
2023-05-25T00:20:36.418Z,102451.88
2023-05-25T00:25:58.807Z,102450.19
2023-05-25T00:31:20.646Z,102453.19
2023-05-25T00:36:43.614Z,102461.69
2023-05-25T00:42:07.638Z,102458.28
2023-05-25T00:47:29.774Z,102455.50
2023-05-25T00:52:51.772Z,102454.84
2023-05-25T00:58:14.032Z,102459.53
2023-05-25T01:03:38.278Z,102465.31
2023-05-25T01:09:04.579Z,102469.78
2023-05-25T01:14:27.712Z,102465.31
2023-05-25T01:20:01.653Z,102465.53
2023-05-25T01:25:37.305Z,102471.91
2023-05-25T01:31:00.423Z,102471.28
2023-05-25T01:36:22.679Z,102470.63
2023-05-25T01:41:44.563Z,102477.25
2023-05-25T01:47:17.272Z,102476.16
2023-05-25T01:53:01.345Z,102471.91
2023-05-25T01:58:26.321Z,102474.91
2023-05-25T02:03:49.484Z,102478.53
2023-05-25T02:09:11.385Z,102477.88
2023-05-25T02:14:33.293Z,102482.59
2023-05-25T02:19:55.266Z,102488.13
2023-05-25T02:25:17.720Z,102486.41
2023-05-25T02:30:39.605Z,102485.56
2023-05-25T02:36:01.603Z,102479.38
2023-05-25T02:41:24.601Z,102486.84
2023-05-25T02:46:46.613Z,102480.44
2023-05-25T02:52:08.539Z,102486.19
2023-05-25T02:57:30.747Z,102492.81
2023-05-25T03:02:53.003Z,102496.66
2023-05-25T03:08:14.874Z,102492.16
2023-05-25T03:13:36.768Z,102490.66
2023-05-25T03:18:58.614Z,102490.66
2023-05-25T03:24:20.550Z,102499.19
2023-05-25T03:29:42.430Z,102500.25
2023-05-25T03:35:07.146Z,102505.78
2023-05-25T03:40:29.293Z,102511.34
2023-05-25T03:45:51.991Z,102520.72
2023-05-25T03:51:13.841Z,102522.66
2023-05-25T03:56:35.849Z,102521.78
2023-05-25T04:01:57.880Z,102524.56
2023-05-25T04:07:20.611Z,102535.88
2023-05-25T04:12:42.440Z,102529.47
2023-05-25T04:18:04.532Z,102542.25
2023-05-25T04:23:26.372Z,102540.53
2023-05-25T04:28:48.616Z,102551.84
2023-05-25T04:34:10.510Z,102552.91
2023-05-25T04:39:33.029Z,102545.47
2023-05-25T04:44:56.237Z,102559.34
2023-05-25T04:50:18.295Z,102557.63
2023-05-25T04:55:40.323Z,102560.41
2023-05-25T05:01:02.293Z,102562.28
2023-05-25T05:06:25.985Z,102567.00
2023-05-25T05:11:47.900Z,102574.03
2023-05-25T05:22:33.838Z,102585.84
2023-05-25T05:27:55.656Z,102591.44
2023-05-25T05:33:17.619Z,102588.75
2023-05-25T05:38:41.689Z,102589.81
2023-05-25T05:44:03.491Z,102596.66
2023-05-25T05:49:25.317Z,102596.25
2023-05-25T05:54:47.155Z,102600.50
2023-05-25T06:00:09.735Z,102610.78
2023-05-25T06:05:31.598Z,102614.41
2023-05-25T06:10:53.568Z,102627.44
2023-05-25T06:16:15.470Z,102622.09
2023-05-25T06:21:38.008Z,102639.00
2023-05-25T06:26:59.885Z,102640.28
2023-05-25T06:32:21.756Z,102630.44
2023-05-25T06:37:43.871Z,102629.59
2023-05-25T06:43:05.809Z,102636.41
2023-05-25T06:48:27.640Z,102643.25
2023-05-25T06:53:49.612Z,102649.00
2023-05-25T06:59:11.521Z,102650.28
2023-05-25T07:04:35.066Z,102649.00
2023-05-25T07:09:56.993Z,102655.63
2023-05-25T07:15:19.421Z,102658.63
2023-05-25T07:20:42.689Z,102654.34
2023-05-25T07:26:06.109Z,102663.31
2023-05-25T07:31:28.303Z,102666.09
2023-05-25T07:36:50.256Z,102677.00
2023-05-25T07:42:12.305Z,102667.59
2023-05-25T07:47:34.149Z,102673.34
2023-05-25T07:52:56.084Z,102668.88
2023-05-25T07:58:18.117Z,102674.66
2023-05-25T08:03:48.949Z,102676.78
2023-05-25T08:09:13.539Z,102681.91
2023-05-25T08:14:35.369Z,102689.19
2023-05-25T08:19:58.013Z,102688.31
2023-05-25T08:25:20.395Z,102688.53
2023-05-25T08:30:44.087Z,102691.31
2023-05-25T08:36:06.871Z,102696.22
2023-05-25T08:41:29.683Z,102696.22
2023-05-25T08:46:52.198Z,102694.75
2023-05-25T08:52:15.323Z,102694.97
2023-05-25T08:57:49.622Z,102693.28
2023-05-25T09:03:18.396Z,102695.41
2023-05-25T09:08:41.271Z,102696.25
2023-05-25T09:14:03.584Z,102692.84
2023-05-25T09:19:25.421Z,102689.63
2023-05-25T09:24:47.611Z,102697.56
2023-05-25T09:30:09.940Z,102691.16
2023-05-25T09:35:31.975Z,102696.50
2023-05-25T09:40:53.789Z,102692.88
2023-05-25T09:46:15.799Z,102697.97
2023-05-25T09:51:37.750Z,102701.84
2023-05-25T09:57:03.191Z,102697.56
2023-05-25T10:02:25.115Z,102686.03
2023-05-25T10:07:48.332Z,102699.25
2023-05-25T10:13:11.446Z,102706.94
2023-05-25T10:18:36.342Z,102710.78
2023-05-25T10:24:06.621Z,102692.44
2023-05-25T10:29:30.368Z,102696.28
2023-05-25T10:34:53.580Z,102703.97
2023-05-25T10:40:16.026Z,102707.81
2023-05-25T10:45:37.888Z,102693.28
2023-05-25T10:50:59.733Z,102703.53
2023-05-25T10:56:21.879Z,102703.31
2023-05-25T11:01:51.899Z,102703.97
2023-05-25T11:07:16.820Z,102709.53
2023-05-25T11:12:39.235Z,102703.09
2023-05-25T11:18:01.672Z,102701.84
2023-05-25T11:23:24.567Z,102704.41
2023-05-25T11:28:47.315Z,102706.13
2023-05-25T11:34:09.705Z,102698.63
2023-05-25T11:39:35.044Z,102698.63
2023-05-25T11:44:57.412Z,102693.94
2023-05-25T11:50:19.405Z,102698.44
2023-05-25T11:55:43.062Z,102695.00
2023-05-25T12:01:15.288Z,102692.00
2023-05-25T12:06:37.244Z,102696.91
2023-05-25T12:12:00.349Z,102686.88
2023-05-25T12:17:22.532Z,102682.16
2023-05-25T12:22:46.227Z,102676.63
2023-05-25T12:28:12.512Z,102694.78
2023-05-25T12:33:34.918Z,102676.19
2023-05-25T12:39:00.052Z,102679.81
2023-05-25T12:44:32.724Z,102681.53
2023-05-25T12:50:13.856Z,102678.75
2023-05-25T12:55:36.427Z,102678.09
2023-05-25T13:00:58.454Z,102675.56
2023-05-25T13:06:20.387Z,102670.84
2023-05-25T13:11:42.380Z,102659.72
2023-05-25T13:17:04.618Z,102659.31
2023-05-25T13:22:26.769Z,102653.50
2023-05-25T13:27:51.264Z,102645.81
2023-05-25T13:33:13.250Z,102637.28
2023-05-25T13:38:36.256Z,102637.06
2023-05-25T13:43:58.221Z,102635.16
2023-05-25T13:49:20.211Z,102634.50
2023-05-25T13:54:42.319Z,102632.56
2023-05-25T14:00:05.814Z,102633.44
2023-05-25T14:05:28.781Z,102628.31
2023-05-25T14:10:50.826Z,102625.31
2023-05-25T14:16:12.651Z,102636.22
2023-05-25T14:21:35.186Z,102636.22
2023-05-25T14:26:56.984Z,102637.94
2023-05-25T14:32:19.690Z,102635.16
2023-05-25T14:37:41.879Z,102641.56
2023-05-25T14:43:03.816Z,102632.59
2023-05-25T14:48:26.421Z,102624.66
2023-05-25T14:53:48.246Z,102623.19
2023-05-25T14:59:10.106Z,102615.91
2023-05-25T15:04:32.151Z,102611.22
2023-05-25T15:09:54.015Z,102606.75
2023-05-25T15:15:15.948Z,102610.78
2023-05-25T15:20:37.825Z,102614.63
2023-05-25T15:26:04.757Z,102611.19
2023-05-25T15:31:26.713Z,102609.25
2023-05-25T15:36:48.806Z,102611.41
2023-05-25T15:42:10.738Z,102605.66
2023-05-25T15:47:32.702Z,102607.38
2023-05-25T15:52:54.572Z,102603.97
2023-05-25T15:58:17.967Z,102609.94
2023-05-25T16:03:42.547Z,102605.00
2023-05-25T16:09:04.977Z,102610.75
2023-05-25T16:14:26.822Z,102613.13
2023-05-25T16:19:48.779Z,102607.31
2023-05-25T16:25:11.033Z,102608.38
2023-05-25T16:30:32.921Z,102603.47
2023-05-25T16:35:54.765Z,102602.19
2023-05-25T16:41:16.653Z,102614.16
2023-05-25T16:46:38.665Z,102604.34
2023-05-25T16:52:02.797Z,102603.47
2023-05-25T16:57:24.947Z,102598.97
2023-05-25T17:02:47.342Z,102602.19
2023-05-25T17:08:09.760Z,102589.78
2023-05-25T17:13:31.748Z,102590.63
2023-05-25T17:18:53.633Z,102588.47
2023-05-25T17:24:15.687Z,102591.91
2023-05-25T17:29:38.103Z,102588.88
2023-05-25T17:34:59.982Z,102592.31
2023-05-25T17:40:22.215Z,102595.31
2023-05-25T17:45:44.321Z,102601.72
2023-05-25T17:51:06.368Z,102604.97
2023-05-25T17:56:28.556Z,102600.69
2023-05-25T18:01:50.524Z,102601.34
2023-05-25T18:07:12.376Z,102594.53
2023-05-25T18:12:34.414Z,102594.94
2023-05-25T18:17:56.275Z,102599.22
2023-05-25T18:23:18.345Z,102594.97
2023-05-25T18:28:40.141Z,102597.94
2023-05-25T18:34:02.220Z,102589.41
2023-05-25T18:39:24.104Z,102592.63
2023-05-25T18:44:46.052Z,102597.53
2023-05-25T18:50:08.237Z,102609.09
2023-05-25T18:55:30.218Z,102607.59
2023-05-25T19:00:52.014Z,102614.44
2023-05-25T19:06:13.838Z,102615.50
2023-05-25T19:11:35.825Z,102621.25
2023-05-25T19:16:57.658Z,102621.66
2023-05-25T19:22:19.671Z,102615.47
2023-05-25T19:27:41.513Z,102621.44
2023-05-25T19:33:03.395Z,102625.50
2023-05-25T19:38:28.861Z,102624.88
2023-05-25T19:43:56.347Z,102627.00
2023-05-25T19:49:18.160Z,102631.94
2023-05-25T19:54:40.119Z,102647.06
2023-05-25T20:00:02.256Z,102657.34
2023-05-25T20:05:24.570Z,102659.06
2023-05-25T20:10:46.429Z,102662.91
2023-05-25T20:16:11.527Z,102672.28
2023-05-25T20:21:34.299Z,102665.69
2023-05-25T20:26:57.058Z,102677.84
2023-05-25T20:32:18.949Z,102680.63
2023-05-25T20:37:42.302Z,102690.66
2023-05-25T20:43:04.166Z,102697.94
2023-05-25T20:48:26.212Z,102699.00
2023-05-25T20:53:48.222Z,102707.34
2023-05-25T20:59:10.170Z,102710.09
2023-05-25T21:04:32.132Z,102708.63
2023-05-25T21:09:56.930Z,102711.59
2023-05-25T21:15:18.735Z,102699.19
2023-05-25T21:20:40.831Z,102701.34
2023-05-25T21:26:02.703Z,102706.88
2023-05-25T21:31:25.290Z,102707.06
2023-05-25T21:36:47.188Z,102711.13
2023-05-25T21:42:09.796Z,102711.13
2023-05-25T21:47:31.693Z,102707.06
2023-05-25T21:52:53.559Z,102710.91
2023-05-25T21:58:18.013Z,102721.16
2023-05-25T22:03:39.957Z,102722.22
2023-05-25T22:09:02.298Z,102722.44
2023-05-25T22:14:24.216Z,102731.84
2023-05-25T22:19:52.113Z,102726.47
2023-05-25T22:25:21.351Z,102728.63
2023-05-25T22:30:43.220Z,102733.97
2023-05-25T22:36:05.299Z,102731.19
2023-05-25T22:41:27.273Z,102731.19
2023-05-25T22:46:49.344Z,102732.25
2023-05-25T22:52:12.006Z,102737.56
2023-05-25T22:57:34.068Z,102739.50
2023-05-25T23:02:56.287Z,102740.56
2023-05-25T23:08:18.248Z,102742.50
2023-05-25T23:13:41.750Z,102741.63
2023-05-25T23:19:03.620Z,102737.16
2023-05-25T23:24:25.435Z,102727.09
2023-05-25T23:29:47.279Z,102738.44
2023-05-25T23:35:09.468Z,102737.56
2023-05-25T23:40:31.490Z,102735.84
2023-05-25T23:45:53.603Z,102729.44
2023-05-25T23:51:15.492Z,102727.72
2023-05-25T23:56:37.288Z,102732.44
